sensor_id;sensor_type;location;lat;lon;timestamp;temperature;humidity
21425;DHT22;10873;51.132;16.848;2024-02-14T00:01:11;23.50;43.90
21425;DHT22;10873;51.132;16.848;2024-02-14T00:03:40;23.50;44.00
21425;DHT22;10873;51.132;16.848;2024-02-14T00:06:06;23.50;44.00
21425;DHT22;10873;51.132;16.848;2024-02-14T00:08:32;23.50;44.00
21425;DHT22;10873;51.132;16.848;2024-02-14T00:10:59;23.40;43.90
21425;DHT22;10873;51.132;16.848;2024-02-14T00:13:26;23.50;43.90
21425;DHT22;10873;51.132;16.848;2024-02-14T00:15:52;23.50;43.90
21425;DHT22;10873;51.132;16.848;2024-02-14T00:18:18;23.50;43.80
21425;DHT22;10873;51.132;16.848;2024-02-14T00:20:45;23.50;43.80
21425;DHT22;10873;51.132;16.848;2024-02-14T00:23:11;23.50;43.80
21425;DHT22;10873;51.132;16.848;2024-02-14T00:25:37;23.50;43.70
21425;DHT22;10873;51.132;16.848;2024-02-14T00:28:05;23.50;43.70
21425;DHT22;10873;51.132;16.848;2024-02-14T00:30:31;23.50;43.70
21425;DHT22;10873;51.132;16.848;2024-02-14T00:32:57;23.40;43.60
21425;DHT22;10873;51.132;16.848;2024-02-14T00:35:24;23.50;43.80
21425;DHT22;10873;51.132;16.848;2024-02-14T00:37:50;23.40;43.70
21425;DHT22;10873;51.132;16.848;2024-02-14T00:40:16;23.40;43.80
21425;DHT22;10873;51.132;16.848;2024-02-14T00:42:43;23.40;43.80
21425;DHT22;10873;51.132;16.848;2024-02-14T00:45:11;23.40;43.80
21425;DHT22;10873;51.132;16.848;2024-02-14T00:47:37;23.40;43.80
21425;DHT22;10873;51.132;16.848;2024-02-14T00:50:03;23.40;43.80
21425;DHT22;10873;51.132;16.848;2024-02-14T00:52:29;23.40;43.80
21425;DHT22;10873;51.132;16.848;2024-02-14T00:54:56;23.40;43.70
21425;DHT22;10873;51.132;16.848;2024-02-14T00:57:23;23.40;43.70
21425;DHT22;10873;51.132;16.848;2024-02-14T00:59:52;23.40;43.60
21425;DHT22;10873;51.132;16.848;2024-02-14T01:02:19;23.40;43.60
21425;DHT22;10873;51.132;16.848;2024-02-14T01:04:45;23.40;43.60
21425;DHT22;10873;51.132;16.848;2024-02-14T01:07:11;23.40;43.60
21425;DHT22;10873;51.132;16.848;2024-02-14T01:09:37;23.40;43.60
21425;DHT22;10873;51.132;16.848;2024-02-14T01:12:03;23.40;43.70
21425;DHT22;10873;51.132;16.848;2024-02-14T01:14:31;23.40;43.70
21425;DHT22;10873;51.132;16.848;2024-02-14T01:16:57;23.40;43.70
21425;DHT22;10873;51.132;16.848;2024-02-14T01:19:24;23.40;43.70
21425;DHT22;10873;51.132;16.848;2024-02-14T01:21:54;23.40;43.70
21425;DHT22;10873;51.132;16.848;2024-02-14T01:24:20;23.40;43.70
21425;DHT22;10873;51.132;16.848;2024-02-14T01:26:47;23.40;43.60
21425;DHT22;10873;51.132;16.848;2024-02-14T01:29:13;23.40;43.60
21425;DHT22;10873;51.132;16.848;2024-02-14T01:31:40;23.40;43.50
21425;DHT22;10873;51.132;16.848;2024-02-14T01:34:06;23.40;43.40
21425;DHT22;10873;51.132;16.848;2024-02-14T01:36:33;23.40;43.40
21425;DHT22;10873;51.132;16.848;2024-02-14T01:38:59;23.40;43.40
21425;DHT22;10873;51.132;16.848;2024-02-14T01:41:25;23.40;43.30
21425;DHT22;10873;51.132;16.848;2024-02-14T01:43:51;23.40;43.30
21425;DHT22;10873;51.132;16.848;2024-02-14T01:46:18;23.40;43.40
21425;DHT22;10873;51.132;16.848;2024-02-14T01:48:44;23.30;43.40
21425;DHT22;10873;51.132;16.848;2024-02-14T01:51:12;23.30;43.40
21425;DHT22;10873;51.132;16.848;2024-02-14T01:53:40;23.30;43.40
21425;DHT22;10873;51.132;16.848;2024-02-14T01:56:06;23.30;43.40
21425;DHT22;10873;51.132;16.848;2024-02-14T01:58:33;23.40;43.40
21425;DHT22;10873;51.132;16.848;2024-02-14T02:01:00;23.40;43.30
21425;DHT22;10873;51.132;16.848;2024-02-14T02:03:26;23.40;43.30
21425;DHT22;10873;51.132;16.848;2024-02-14T02:05:52;23.40;43.90
21425;DHT22;10873;51.132;16.848;2024-02-14T02:08:20;23.40;43.20
21425;DHT22;10873;51.132;16.848;2024-02-14T02:10:52;23.40;43.20
21425;DHT22;10873;51.132;16.848;2024-02-14T02:13:19;23.40;43.70
21425;DHT22;10873;51.132;16.848;2024-02-14T02:15:47;23.40;43.10
21425;DHT22;10873;51.132;16.848;2024-02-14T02:18:13;23.30;43.10
21425;DHT22;10873;51.132;16.848;2024-02-14T02:20:40;23.30;43.10
21425;DHT22;10873;51.132;16.848;2024-02-14T02:23:11;23.30;43.10
21425;DHT22;10873;51.132;16.848;2024-02-14T02:25:40;23.30;43.20
21425;DHT22;10873;51.132;16.848;2024-02-14T02:28:07;23.30;43.20
21425;DHT22;10873;51.132;16.848;2024-02-14T02:30:34;23.30;43.20
21425;DHT22;10873;51.132;16.848;2024-02-14T02:33:02;23.30;43.10
21425;DHT22;10873;51.132;16.848;2024-02-14T02:35:31;23.30;43.00
21425;DHT22;10873;51.132;16.848;2024-02-14T02:38:00;23.30;42.90
21425;DHT22;10873;51.132;16.848;2024-02-14T02:40:29;23.30;42.80
21425;DHT22;10873;51.132;16.848;2024-02-14T02:42:59;23.30;42.80
21425;DHT22;10873;51.132;16.848;2024-02-14T02:45:28;23.30;42.70
21425;DHT22;10873;51.132;16.848;2024-02-14T02:47:58;23.30;42.70
21425;DHT22;10873;51.132;16.848;2024-02-14T02:50:28;23.30;42.70
21425;DHT22;10873;51.132;16.848;2024-02-14T02:52:59;23.30;42.70
21425;DHT22;10873;51.132;16.848;2024-02-14T02:55:25;23.30;42.80
21425;DHT22;10873;51.132;16.848;2024-02-14T02:57:54;23.30;42.80
21425;DHT22;10873;51.132;16.848;2024-02-14T03:00:22;23.30;42.90
21425;DHT22;10873;51.132;16.848;2024-02-14T03:02:49;23.30;42.90
21425;DHT22;10873;51.132;16.848;2024-02-14T03:05:15;23.30;42.90
21425;DHT22;10873;51.132;16.848;2024-02-14T03:07:44;23.30;42.90
21425;DHT22;10873;51.132;16.848;2024-02-14T03:10:11;23.30;42.80
21425;DHT22;10873;51.132;16.848;2024-02-14T03:12:42;23.30;42.70
21425;DHT22;10873;51.132;16.848;2024-02-14T03:15:11;23.30;42.70
21425;DHT22;10873;51.132;16.848;2024-02-14T03:17:42;23.30;42.70
21425;DHT22;10873;51.132;16.848;2024-02-14T03:20:14;23.30;42.60
21425;DHT22;10873;51.132;16.848;2024-02-14T03:22:46;23.30;42.60
21425;DHT22;10873;51.132;16.848;2024-02-14T03:25:17;23.30;42.50
21425;DHT22;10873;51.132;16.848;2024-02-14T03:27:44;23.20;42.50
21425;DHT22;10873;51.132;16.848;2024-02-14T03:30:15;23.20;42.50
21425;DHT22;10873;51.132;16.848;2024-02-14T03:32:43;23.20;42.60
21425;DHT22;10873;51.132;16.848;2024-02-14T03:35:09;23.20;42.70
21425;DHT22;10873;51.132;16.848;2024-02-14T03:37:56;23.20;42.70
21425;DHT22;10873;51.132;16.848;2024-02-14T03:40:22;23.20;42.20
21425;DHT22;10873;51.132;16.848;2024-02-14T03:42:50;23.20;42.60
21425;DHT22;10873;51.132;16.848;2024-02-14T03:45:19;23.20;42.60
21425;DHT22;10873;51.132;16.848;2024-02-14T03:47:46;23.20;42.50
21425;DHT22;10873;51.132;16.848;2024-02-14T03:50:15;23.20;42.40
21425;DHT22;10873;51.132;16.848;2024-02-14T03:52:47;23.20;42.40
21425;DHT22;10873;51.132;16.848;2024-02-14T03:55:17;23.20;42.30
21425;DHT22;10873;51.132;16.848;2024-02-14T03:57:48;23.20;42.30
21425;DHT22;10873;51.132;16.848;2024-02-14T04:00:15;23.20;42.30
21425;DHT22;10873;51.132;16.848;2024-02-14T04:02:45;23.20;42.40
21425;DHT22;10873;51.132;16.848;2024-02-14T04:05:13;23.20;42.40
21425;DHT22;10873;51.132;16.848;2024-02-14T04:07:40;23.20;42.50
21425;DHT22;10873;51.132;16.848;2024-02-14T04:10:06;23.20;42.60
21425;DHT22;10873;51.132;16.848;2024-02-14T04:12:33;23.20;42.50
21425;DHT22;10873;51.132;16.848;2024-02-14T04:14:59;23.20;42.50
21425;DHT22;10873;51.132;16.848;2024-02-14T04:17:28;23.20;42.50
21425;DHT22;10873;51.132;16.848;2024-02-14T04:19:55;23.20;42.40
21425;DHT22;10873;51.132;16.848;2024-02-14T04:22:21;23.20;42.40
21425;DHT22;10873;51.132;16.848;2024-02-14T04:24:50;23.20;42.30
21425;DHT22;10873;51.132;16.848;2024-02-14T04:27:22;23.20;42.30
21425;DHT22;10873;51.132;16.848;2024-02-14T04:29:48;23.20;42.20
21425;DHT22;10873;51.132;16.848;2024-02-14T04:32:15;23.20;42.30
21425;DHT22;10873;51.132;16.848;2024-02-14T04:34:42;23.20;42.30
21425;DHT22;10873;51.132;16.848;2024-02-14T04:37:11;23.20;43.00
21425;DHT22;10873;51.132;16.848;2024-02-14T04:39:39;23.20;42.40
21425;DHT22;10873;51.132;16.848;2024-02-14T04:42:09;23.20;42.40
21425;DHT22;10873;51.132;16.848;2024-02-14T04:44:35;23.20;42.40
21425;DHT22;10873;51.132;16.848;2024-02-14T04:47:04;23.10;42.30
21425;DHT22;10873;51.132;16.848;2024-02-14T04:49:30;23.10;42.20
21425;DHT22;10873;51.132;16.848;2024-02-14T04:51:58;23.20;42.20
21425;DHT22;10873;51.132;16.848;2024-02-14T04:54:25;23.20;42.20
21425;DHT22;10873;51.132;16.848;2024-02-14T04:56:52;23.20;42.20
21425;DHT22;10873;51.132;16.848;2024-02-14T04:59:18;23.20;42.10
21425;DHT22;10873;51.132;16.848;2024-02-14T05:01:45;23.10;42.10
21425;DHT22;10873;51.132;16.848;2024-02-14T05:04:13;23.10;42.00
21425;DHT22;10873;51.132;16.848;2024-02-14T05:06:40;23.10;42.10
21425;DHT22;10873;51.132;16.848;2024-02-14T05:09:08;23.10;42.20
21425;DHT22;10873;51.132;16.848;2024-02-14T05:11:40;23.10;42.20
21425;DHT22;10873;51.132;16.848;2024-02-14T05:14:09;23.10;42.30
21425;DHT22;10873;51.132;16.848;2024-02-14T05:16:46;23.10;42.40
21425;DHT22;10873;51.132;16.848;2024-02-14T05:19:17;23.10;42.40
21425;DHT22;10873;51.132;16.848;2024-02-14T05:21:48;23.10;42.40
21425;DHT22;10873;51.132;16.848;2024-02-14T05:24:17;23.10;42.30
21425;DHT22;10873;51.132;16.848;2024-02-14T05:26:52;23.10;42.30
21425;DHT22;10873;51.132;16.848;2024-02-14T05:29:18;23.10;42.30
21425;DHT22;10873;51.132;16.848;2024-02-14T05:32:01;23.10;42.20
21425;DHT22;10873;51.132;16.848;2024-02-14T05:34:36;23.10;42.20
21425;DHT22;10873;51.132;16.848;2024-02-14T05:37:03;23.10;42.20
21425;DHT22;10873;51.132;16.848;2024-02-14T05:39:32;23.10;42.30
21425;DHT22;10873;51.132;16.848;2024-02-14T05:42:01;23.10;42.30
21425;DHT22;10873;51.132;16.848;2024-02-14T05:44:28;23.10;42.50
21425;DHT22;10873;51.132;16.848;2024-02-14T05:46:58;23.10;42.60
21425;DHT22;10873;51.132;16.848;2024-02-14T05:49:25;23.10;42.80
21425;DHT22;10873;51.132;16.848;2024-02-14T05:51:51;23.10;43.20
21425;DHT22;10873;51.132;16.848;2024-02-14T05:54:21;23.10;43.60
21425;DHT22;10873;51.132;16.848;2024-02-14T05:56:47;23.10;43.60
21425;DHT22;10873;51.132;16.848;2024-02-14T05:59:14;23.10;43.50
21425;DHT22;10873;51.132;16.848;2024-02-14T06:01:40;23.10;43.40
21425;DHT22;10873;51.132;16.848;2024-02-14T06:04:07;23.10;43.20
21425;DHT22;10873;51.132;16.848;2024-02-14T06:06:35;23.10;43.20
21425;DHT22;10873;51.132;16.848;2024-02-14T06:09:19;23.10;43.20
21425;DHT22;10873;51.132;16.848;2024-02-14T06:11:54;23.10;43.10
21425;DHT22;10873;51.132;16.848;2024-02-14T06:14:26;23.10;43.10
21425;DHT22;10873;51.132;16.848;2024-02-14T06:17:07;23.10;43.20
21425;DHT22;10873;51.132;16.848;2024-02-14T06:20:01;23.10;43.10
21425;DHT22;10873;51.132;16.848;2024-02-14T06:33:59;23.10;42.90
21425;DHT22;10873;51.132;16.848;2024-02-14T06:37:19;23.10;42.90
21425;DHT22;10873;51.132;16.848;2024-02-14T06:46:49;23.10;42.80
21425;DHT22;10873;51.132;16.848;2024-02-14T06:50:21;23.10;43.00
21425;DHT22;10873;51.132;16.848;2024-02-14T06:54:06;23.10;43.10
21425;DHT22;10873;51.132;16.848;2024-02-14T06:57:12;23.10;43.10
21425;DHT22;10873;51.132;16.848;2024-02-14T07:21:07;23.10;43.20
21425;DHT22;10873;51.132;16.848;2024-02-14T07:24:22;23.10;43.30
21425;DHT22;10873;51.132;16.848;2024-02-14T07:31:23;23.10;43.50
21425;DHT22;10873;51.132;16.848;2024-02-14T07:34:01;23.10;43.60
21425;DHT22;10873;51.132;16.848;2024-02-14T07:37:09;23.10;43.60
21425;DHT22;10873;51.132;16.848;2024-02-14T07:40:29;23.10;43.70
21425;DHT22;10873;51.132;16.848;2024-02-14T07:43:05;23.10;43.70
21425;DHT22;10873;51.132;16.848;2024-02-14T07:46:05;23.10;43.70
21425;DHT22;10873;51.132;16.848;2024-02-14T07:48:48;23.10;43.80
21425;DHT22;10873;51.132;16.848;2024-02-14T07:55:56;23.10;44.00
21425;DHT22;10873;51.132;16.848;2024-02-14T07:59:01;23.10;44.20
21425;DHT22;10873;51.132;16.848;2024-02-14T08:01:44;23.10;44.20
21425;DHT22;10873;51.132;16.848;2024-02-14T08:04:13;23.10;44.30
21425;DHT22;10873;51.132;16.848;2024-02-14T08:07:05;23.10;44.30
21425;DHT22;10873;51.132;16.848;2024-02-14T08:12:53;23.10;44.40
21425;DHT22;10873;51.132;16.848;2024-02-14T08:15:28;23.10;44.50
21425;DHT22;10873;51.132;16.848;2024-02-14T08:21:21;23.10;44.50
21425;DHT22;10873;51.132;16.848;2024-02-14T08:24:16;23.10;44.70
21425;DHT22;10873;51.132;16.848;2024-02-14T08:26:59;23.10;44.80
21425;DHT22;10873;51.132;16.848;2024-02-14T08:29:44;23.10;44.90
21425;DHT22;10873;51.132;16.848;2024-02-14T08:32:10;23.20;44.90
21425;DHT22;10873;51.132;16.848;2024-02-14T08:34:41;23.20;45.00
21425;DHT22;10873;51.132;16.848;2024-02-14T08:37:07;23.20;45.00
21425;DHT22;10873;51.132;16.848;2024-02-14T08:39:37;23.20;45.00
21425;DHT22;10873;51.132;16.848;2024-02-14T08:42:04;23.20;45.00
21425;DHT22;10873;51.132;16.848;2024-02-14T08:44:33;23.20;45.00
21425;DHT22;10873;51.132;16.848;2024-02-14T08:47:01;23.20;45.00
21425;DHT22;10873;51.132;16.848;2024-02-14T08:49:33;23.20;45.70
21425;DHT22;10873;51.132;16.848;2024-02-14T08:52:00;23.30;45.20
21425;DHT22;10873;51.132;16.848;2024-02-14T08:54:34;23.30;45.20
21425;DHT22;10873;51.132;16.848;2024-02-14T08:57:08;23.20;45.20
21425;DHT22;10873;51.132;16.848;2024-02-14T09:02:52;23.20;45.50
21425;DHT22;10873;51.132;16.848;2024-02-14T09:05:49;23.20;45.60
21425;DHT22;10873;51.132;16.848;2024-02-14T09:08:33;23.30;45.70
21425;DHT22;10873;51.132;16.848;2024-02-14T09:11:06;23.30;45.70
21425;DHT22;10873;51.132;16.848;2024-02-14T09:13:44;23.30;45.70
21425;DHT22;10873;51.132;16.848;2024-02-14T09:16:24;23.40;45.70
21425;DHT22;10873;51.132;16.848;2024-02-14T09:18:52;23.40;45.80
21425;DHT22;10873;51.132;16.848;2024-02-14T09:21:23;23.40;45.70
21425;DHT22;10873;51.132;16.848;2024-02-14T09:23:49;23.40;45.70
21425;DHT22;10873;51.132;16.848;2024-02-14T09:26:20;23.40;45.70
21425;DHT22;10873;51.132;16.848;2024-02-14T09:28:51;23.40;45.70
21425;DHT22;10873;51.132;16.848;2024-02-14T09:31:19;23.50;45.70
21425;DHT22;10873;51.132;16.848;2024-02-14T09:33:48;23.50;45.80
21425;DHT22;10873;51.132;16.848;2024-02-14T09:36:17;23.40;45.70
21425;DHT22;10873;51.132;16.848;2024-02-14T09:38:51;23.50;45.80
21425;DHT22;10873;51.132;16.848;2024-02-14T09:41:24;23.50;45.80
21425;DHT22;10873;51.132;16.848;2024-02-14T09:43:57;23.50;45.80
21425;DHT22;10873;51.132;16.848;2024-02-14T09:46:24;23.50;45.90
21425;DHT22;10873;51.132;16.848;2024-02-14T09:48:54;23.50;46.00
21425;DHT22;10873;51.132;16.848;2024-02-14T09:51:31;23.50;46.00
21425;DHT22;10873;51.132;16.848;2024-02-14T09:54:13;23.50;46.10
21425;DHT22;10873;51.132;16.848;2024-02-14T09:57:00;23.50;46.00
21425;DHT22;10873;51.132;16.848;2024-02-14T09:59:46;23.50;46.00
21425;DHT22;10873;51.132;16.848;2024-02-14T10:02:49;23.60;46.00
21425;DHT22;10873;51.132;16.848;2024-02-14T10:05:27;23.60;46.60
21425;DHT22;10873;51.132;16.848;2024-02-14T10:15:15;23.60;45.90
21425;DHT22;10873;51.132;16.848;2024-02-14T10:18:28;23.70;45.90
21425;DHT22;10873;51.132;16.848;2024-02-14T10:21:19;23.70;45.90
21425;DHT22;10873;51.132;16.848;2024-02-14T10:24:19;23.70;45.90
21425;DHT22;10873;51.132;16.848;2024-02-14T10:27:48;23.70;45.90
21425;DHT22;10873;51.132;16.848;2024-02-14T10:31:29;23.70;46.00
21425;DHT22;10873;51.132;16.848;2024-02-14T10:34:07;23.70;46.00
21425;DHT22;10873;51.132;16.848;2024-02-14T10:36:44;23.70;46.00
21425;DHT22;10873;51.132;16.848;2024-02-14T10:39:33;23.70;46.00
21425;DHT22;10873;51.132;16.848;2024-02-14T10:42:24;23.70;46.00
21425;DHT22;10873;51.132;16.848;2024-02-14T10:45:33;23.70;46.00
21425;DHT22;10873;51.132;16.848;2024-02-14T10:48:14;23.70;46.00
21425;DHT22;10873;51.132;16.848;2024-02-14T10:51:33;23.70;46.00
21425;DHT22;10873;51.132;16.848;2024-02-14T10:54:47;23.70;46.00
21425;DHT22;10873;51.132;16.848;2024-02-14T10:57:56;23.80;46.10
21425;DHT22;10873;51.132;16.848;2024-02-14T11:03:27;23.80;46.10
21425;DHT22;10873;51.132;16.848;2024-02-14T11:06:16;23.80;46.10
21425;DHT22;10873;51.132;16.848;2024-02-14T11:09:37;23.80;46.10
21425;DHT22;10873;51.132;16.848;2024-02-14T11:12:49;23.80;46.10
21425;DHT22;10873;51.132;16.848;2024-02-14T11:15:51;23.80;46.20
21425;DHT22;10873;51.132;16.848;2024-02-14T11:19:29;23.80;46.20
21425;DHT22;10873;51.132;16.848;2024-02-14T11:22:23;23.80;46.20
21425;DHT22;10873;51.132;16.848;2024-02-14T11:25:33;23.80;46.20
21425;DHT22;10873;51.132;16.848;2024-02-14T11:28:16;23.80;46.20
21425;DHT22;10873;51.132;16.848;2024-02-14T11:31:30;23.80;46.20
21425;DHT22;10873;51.132;16.848;2024-02-14T11:37:11;23.80;46.20
21425;DHT22;10873;51.132;16.848;2024-02-14T11:40:22;23.80;46.20
21425;DHT22;10873;51.132;16.848;2024-02-14T11:46:08;23.80;46.20
21425;DHT22;10873;51.132;16.848;2024-02-14T11:49:14;23.80;46.20
21425;DHT22;10873;51.132;16.848;2024-02-14T11:52:00;23.80;46.30
21425;DHT22;10873;51.132;16.848;2024-02-14T11:55:26;23.80;46.30
21425;DHT22;10873;51.132;16.848;2024-02-14T12:01:51;23.80;46.10
21425;DHT22;10873;51.132;16.848;2024-02-14T12:04:45;23.80;46.10
21425;DHT22;10873;51.132;16.848;2024-02-14T12:08:35;23.80;46.10
21425;DHT22;10873;51.132;16.848;2024-02-14T12:11:51;23.80;46.10
21425;DHT22;10873;51.132;16.848;2024-02-14T12:14:54;23.70;46.10
21425;DHT22;10873;51.132;16.848;2024-02-14T12:21:35;23.80;46.20
21425;DHT22;10873;51.132;16.848;2024-02-14T12:24:31;23.80;46.30
21425;DHT22;10873;51.132;16.848;2024-02-14T12:30:49;23.80;46.40
21425;DHT22;10873;51.132;16.848;2024-02-14T12:33:23;23.90;46.40
21425;DHT22;10873;51.132;16.848;2024-02-14T12:35:59;23.90;46.30
21425;DHT22;10873;51.132;16.848;2024-02-14T12:38:31;24.00;46.40
21425;DHT22;10873;51.132;16.848;2024-02-14T12:41:04;24.00;46.50
21425;DHT22;10873;51.132;16.848;2024-02-14T12:43:33;24.00;46.50
21425;DHT22;10873;51.132;16.848;2024-02-14T12:46:03;24.00;46.50
21425;DHT22;10873;51.132;16.848;2024-02-14T12:48:31;24.00;46.50
21425;DHT22;10873;51.132;16.848;2024-02-14T12:51:00;24.00;46.60
21425;DHT22;10873;51.132;16.848;2024-02-14T12:53:28;24.10;46.70
21425;DHT22;10873;51.132;16.848;2024-02-14T12:55:59;24.10;46.70
21425;DHT22;10873;51.132;16.848;2024-02-14T12:58:26;24.10;46.70
21425;DHT22;10873;51.132;16.848;2024-02-14T13:00:53;24.10;46.70
21425;DHT22;10873;51.132;16.848;2024-02-14T13:03:30;24.10;46.70
21425;DHT22;10873;51.132;16.848;2024-02-14T13:05:59;24.10;46.90
21425;DHT22;10873;51.132;16.848;2024-02-14T13:08:26;24.20;47.00
21425;DHT22;10873;51.132;16.848;2024-02-14T13:10:53;24.20;47.10
21425;DHT22;10873;51.132;16.848;2024-02-14T13:13:23;24.20;46.90
21425;DHT22;10873;51.132;16.848;2024-02-14T13:15:50;24.30;46.80
21425;DHT22;10873;51.132;16.848;2024-02-14T13:18:18;24.30;46.70
21425;DHT22;10873;51.132;16.848;2024-02-14T13:20:49;24.30;47.30
21425;DHT22;10873;51.132;16.848;2024-02-14T13:23:22;24.30;46.70
21425;DHT22;10873;51.132;16.848;2024-02-14T13:25:53;24.30;46.80
21425;DHT22;10873;51.132;16.848;2024-02-14T13:28:23;24.30;46.80
21425;DHT22;10873;51.132;16.848;2024-02-14T13:30:50;24.30;46.80
21425;DHT22;10873;51.132;16.848;2024-02-14T13:33:17;24.30;46.80
21425;DHT22;10873;51.132;16.848;2024-02-14T13:35:43;24.30;46.80
21425;DHT22;10873;51.132;16.848;2024-02-14T13:38:11;24.30;46.70
21425;DHT22;10873;51.132;16.848;2024-02-14T13:40:37;24.30;46.70
21425;DHT22;10873;51.132;16.848;2024-02-14T13:43:04;24.30;46.70
21425;DHT22;10873;51.132;16.848;2024-02-14T13:45:40;24.30;46.70
21425;DHT22;10873;51.132;16.848;2024-02-14T13:48:08;24.30;46.70
21425;DHT22;10873;51.132;16.848;2024-02-14T13:50:35;24.30;46.70
21425;DHT22;10873;51.132;16.848;2024-02-14T13:53:01;24.30;46.70
21425;DHT22;10873;51.132;16.848;2024-02-14T13:55:29;24.30;46.80
21425;DHT22;10873;51.132;16.848;2024-02-14T13:57:55;24.30;46.80
21425;DHT22;10873;51.132;16.848;2024-02-14T14:00:22;24.30;46.80
21425;DHT22;10873;51.132;16.848;2024-02-14T14:02:51;24.30;46.80
21425;DHT22;10873;51.132;16.848;2024-02-14T14:05:17;24.20;46.70
21425;DHT22;10873;51.132;16.848;2024-02-14T14:07:44;24.30;46.80
21425;DHT22;10873;51.132;16.848;2024-02-14T14:10:10;24.20;46.70
21425;DHT22;10873;51.132;16.848;2024-02-14T14:12:37;24.20;46.70
21425;DHT22;10873;51.132;16.848;2024-02-14T14:15:05;24.20;46.80
21425;DHT22;10873;51.132;16.848;2024-02-14T14:17:32;24.20;46.70
21425;DHT22;10873;51.132;16.848;2024-02-14T14:19:58;24.20;46.80
21425;DHT22;10873;51.132;16.848;2024-02-14T14:22:26;24.20;46.80
21425;DHT22;10873;51.132;16.848;2024-02-14T14:24:57;24.20;46.80
21425;DHT22;10873;51.132;16.848;2024-02-14T14:27:23;24.20;46.80
21425;DHT22;10873;51.132;16.848;2024-02-14T14:29:50;24.20;46.80
21425;DHT22;10873;51.132;16.848;2024-02-14T14:32:17;24.20;46.80
21425;DHT22;10873;51.132;16.848;2024-02-14T14:34:43;24.20;46.90
21425;DHT22;10873;51.132;16.848;2024-02-14T14:37:10;24.20;46.90
21425;DHT22;10873;51.132;16.848;2024-02-14T14:39:36;24.20;47.60
21425;DHT22;10873;51.132;16.848;2024-02-14T14:42:03;24.20;47.00
21425;DHT22;10873;51.132;16.848;2024-02-14T14:44:29;24.20;47.00
21425;DHT22;10873;51.132;16.848;2024-02-14T14:46:57;24.20;47.00
21425;DHT22;10873;51.132;16.848;2024-02-14T14:49:23;24.20;47.10
21425;DHT22;10873;51.132;16.848;2024-02-14T14:51:50;24.20;47.10
21425;DHT22;10873;51.132;16.848;2024-02-14T14:54:16;24.10;47.10
21425;DHT22;10873;51.132;16.848;2024-02-14T14:56:42;24.10;47.10
21425;DHT22;10873;51.132;16.848;2024-02-14T14:59:08;24.20;47.20
21425;DHT22;10873;51.132;16.848;2024-02-14T15:01:35;24.10;47.20
21425;DHT22;10873;51.132;16.848;2024-02-14T15:04:03;24.10;47.20
21425;DHT22;10873;51.132;16.848;2024-02-14T15:06:30;24.10;47.30
21425;DHT22;10873;51.132;16.848;2024-02-14T15:08:56;24.20;47.40
21425;DHT22;10873;51.132;16.848;2024-02-14T15:11:23;24.10;47.60
21425;DHT22;10873;51.132;16.848;2024-02-14T15:13:49;24.10;48.80
21425;DHT22;10873;51.132;16.848;2024-02-14T15:16:15;24.20;49.40
21425;DHT22;10873;51.132;16.848;2024-02-14T15:18:44;24.20;49.80
21425;DHT22;10873;51.132;16.848;2024-02-14T15:21:13;24.20;50.20
21425;DHT22;10873;51.132;16.848;2024-02-14T15:23:39;24.20;51.10
21425;DHT22;10873;51.132;16.848;2024-02-14T15:26:06;24.20;51.10
21425;DHT22;10873;51.132;16.848;2024-02-14T15:28:34;24.30;51.50
21425;DHT22;10873;51.132;16.848;2024-02-14T15:31:06;24.30;53.20
21425;DHT22;10873;51.132;16.848;2024-02-14T15:33:51;24.30;55.70
21425;DHT22;10873;51.132;16.848;2024-02-14T15:36:19;24.50;58.50
21425;DHT22;10873;51.132;16.848;2024-02-14T15:38:45;24.70;58.90
21425;DHT22;10873;51.132;16.848;2024-02-14T15:41:11;25.00;59.00
21425;DHT22;10873;51.132;16.848;2024-02-14T15:43:38;25.40;59.20
21425;DHT22;10873;51.132;16.848;2024-02-14T15:46:05;25.80;59.20
21425;DHT22;10873;51.132;16.848;2024-02-14T15:48:31;26.30;59.10
21425;DHT22;10873;51.132;16.848;2024-02-14T15:50:59;26.80;59.00
21425;DHT22;10873;51.132;16.848;2024-02-14T15:53:26;27.30;58.20
21425;DHT22;10873;51.132;16.848;2024-02-14T15:55:53;27.70;58.10
21425;DHT22;10873;51.132;16.848;2024-02-14T15:58:19;28.10;57.50
21425;DHT22;10873;51.132;16.848;2024-02-14T16:00:47;28.40;57.70
21425;DHT22;10873;51.132;16.848;2024-02-14T16:03:13;28.80;57.30
21425;DHT22;10873;51.132;16.848;2024-02-14T16:05:40;29.10;56.90
21425;DHT22;10873;51.132;16.848;2024-02-14T16:08:06;29.30;56.20
21425;DHT22;10873;51.132;16.848;2024-02-14T16:10:34;29.50;55.80
21425;DHT22;10873;51.132;16.848;2024-02-14T16:13:00;29.70;55.30
21425;DHT22;10873;51.132;16.848;2024-02-14T16:15:26;29.80;55.00
21425;DHT22;10873;51.132;16.848;2024-02-14T16:17:53;30.00;54.70
21425;DHT22;10873;51.132;16.848;2024-02-14T16:20:19;30.10;54.20
21425;DHT22;10873;51.132;16.848;2024-02-14T16:22:45;30.30;53.70
21425;DHT22;10873;51.132;16.848;2024-02-14T16:25:13;30.40;53.30
21425;DHT22;10873;51.132;16.848;2024-02-14T16:27:40;30.60;53.00
21425;DHT22;10873;51.132;16.848;2024-02-14T16:30:07;30.70;52.50
21425;DHT22;10873;51.132;16.848;2024-02-14T16:32:33;30.90;51.90
21425;DHT22;10873;51.132;16.848;2024-02-14T16:35:00;31.00;51.70
21425;DHT22;10873;51.132;16.848;2024-02-14T16:37:29;31.10;51.40
21425;DHT22;10873;51.132;16.848;2024-02-14T16:39:56;31.20;51.20
21425;DHT22;10873;51.132;16.848;2024-02-14T16:42:22;31.30;50.90
21425;DHT22;10873;51.132;16.848;2024-02-14T16:44:50;31.50;51.40
21425;DHT22;10873;51.132;16.848;2024-02-14T16:47:16;31.60;50.50
21425;DHT22;10873;51.132;16.848;2024-02-14T16:49:43;31.70;50.40
21425;DHT22;10873;51.132;16.848;2024-02-14T16:52:10;31.80;50.20
21425;DHT22;10873;51.132;16.848;2024-02-14T16:54:36;31.90;50.00
21425;DHT22;10873;51.132;16.848;2024-02-14T16:57:03;32.10;49.70
21425;DHT22;10873;51.132;16.848;2024-02-14T17:00:10;32.20;50.00
21425;DHT22;10873;51.132;16.848;2024-02-14T17:02:37;31.80;52.40
21425;DHT22;10873;51.132;16.848;2024-02-14T17:05:04;31.30;52.70
21425;DHT22;10873;51.132;16.848;2024-02-14T17:07:31;30.90;52.40
21425;DHT22;10873;51.132;16.848;2024-02-14T17:09:57;30.50;52.70
21425;DHT22;10873;51.132;16.848;2024-02-14T17:12:25;30.20;52.40
21425;DHT22;10873;51.132;16.848;2024-02-14T17:14:52;29.90;52.50
21425;DHT22;10873;51.132;16.848;2024-02-14T17:17:20;29.70;50.60
21425;DHT22;10873;51.132;16.848;2024-02-14T17:19:47;29.40;50.00
21425;DHT22;10873;51.132;16.848;2024-02-14T17:22:14;29.20;49.60